Latest Weather Observations for Walgett

IDN60801

Issued at 10:42 am EST Saturday 24 August 2019 (issued every 10 minutes, with the page automatically refreshed every 10 minutes)

About weather observations | Map of weather stations | Latest weather observations for NSW | Other Formats
Station Details ID: 052088 Name: WALGETT AIRPORT AWS Lat: -30.04 Lon: 148.12 Height: 133.0 m
Data from the previous 72 hours. | See also: Recent months at Walgett
Date/Time
EST
Temp
°C
App
Temp
°C
Dew
Point
°C
Rel
Hum
%
Delta-T
°C
Wind Press
QNH
hPa
Press
MSL
hPa
Rain since
9am
mm
Dir  Spd
km/h
Gust
km/h
Spd
kts
Gust
kts
24/10:30am 20.4 15.6 4.4 35 7.8 N 19 26 10 14 1022.0 1022.0 0.0
24/10:00am 18.9 13.6 3.1 35 7.4 NNE 20 28 11 15 1022.3 1022.4 0.0
24/09:30am 17.1 11.3 2.3 37 6.7 NNE 22 32 12 17 1022.6 1022.7 0.0
24/09:00am 15.1 9.1 1.3 39 6.0 N 22 32 12 17 1022.9 1023.0 0.0
24/08:30am 13.9 9.2 0.9 41 5.6 N 15 20 8 11 1023.1 1023.2 0.0
24/08:00am 10.7 5.5 -3.0 38 5.2 NE 15 19 8 10 1022.8 1022.9 0.0
24/07:30am 9.0 4.0 -4.2 39 4.8 NE 13 17 7 9 1022.6 1022.7 0.0
24/07:00am 7.1 2.5 -4.3 44 4.0 ENE 11 15 6 8 1022.5 1022.6 0.0
24/06:30am 5.0 -0.2 -5.9 45 3.6 NE 13 15 7 8 1022.3 1022.4 0.0
24/06:00am 5.2 0.8 -5.5 46 3.6 NE 9 13 5 7 1022.2 1022.3 0.0
24/05:30am 5.8 0.6 -5.8 43 3.9 NE 13 19 7 10 1022.2 1022.3 0.0
24/05:00am 4.1 -1.1 -6.2 47 3.3 NE 13 15 7 8 1022.0 1022.0 0.0
24/04:30am 4.0 -0.4 -5.7 49 3.2 NE 9 11 5 6 1021.9 1021.9 0.0
24/04:00am 3.0 -1.2 -7.5 46 3.4 ENE 7 9 4 5 1021.8 1021.8 0.0
24/03:30am 2.0 -1.8 -9.5 42 3.4 ENE 4 7 2 4 1021.8 1021.8 0.0
24/03:00am 2.9 -0.9 -10.0 38 3.9 NE 4 6 2 3 1022.0 1022.0 0.0
24/02:30am 4.4 0.7 -8.3 39 3.9 NE 4 6 2 3 1022.4 1022.5 0.0
24/02:00am 5.8 1.7 -7.1 39 4.1 NE 7 9 4 5 1022.5 1022.6 0.0
24/01:30am 7.7 3.7 -5.7 38 4.6 ENE 7 11 4 6 1022.6 1022.7 0.0
24/01:00am 9.1 4.9 -3.8 40 4.7 ENE 9 11 5 6 1022.5 1022.6 0.0
24/12:30am 6.6 2.3 -4.8 44 3.9 ENE 9 11 5 6 1022.5 1022.6 0.0
24/12:00am 5.8 1.7 -7.1 39 4.1 E 7 9 4 5 1022.6 1022.7 0.0
 
Date/Time
EST
Temp
°C
App
Temp
°C
Dew
Point
°C
Rel
Hum
%
Delta-T
°C
Wind Press
QNH
hPa
Press
MSL
hPa
Rain since
9am
mm
Dir  Spd
km/h
Gust
km/h
Spd
kts
Gust
kts
23/11:30pm 7.0 2.9 -3.2 48 3.7 E 9 9 5 5 1022.6 1022.7 0.0
23/11:00pm 7.2 3.6 -3.9 45 3.9 ENE 6 6 3 3 1022.6 1022.7 0.0
23/10:30pm 7.9 4.3 -2.1 49 3.8 NE 7 7 4 4 1022.7 1022.8 0.0
23/10:00pm 7.7 3.8 -4.7 41 4.3 ENE 7 9 4 5 1022.7 1022.8 0.0
23/09:30pm 8.2 4.4 -5.6 37 4.8 NE 6 7 3 4 1022.9 1023.0 0.0
23/09:00pm 9.7 6.7 -5.0 35 5.2 NNE 2 7 1 4 1023.0 1023.1 0.0
23/08:30pm 11.4 7.6 -3.5 35 5.6 NNE 7 9 4 5 1023.1 1023.2 0.0
23/08:00pm 10.7 6.7 -5.7 31 5.8 SE 7 9 4 5 1022.9 1023.0 0.0
23/07:30pm 13.4 9.2 -3.8 30 6.6 SE 9 11 5 6 1022.6 1022.7 0.0
23/07:00pm 13.0 9.0 -5.5 27 6.8 ESE 7 9 4 5 1022.5 1022.6 0.0
23/06:30pm 15.4 12.8 -4.5 25 7.7 CALM 0 0 0 0 1022.4 1022.5 0.0
23/06:00pm 18.5 16.3 -1.9 25 8.6 CALM 0 6 0 3 1022.4 1022.5 0.0
23/05:30pm 20.1 16.5 -2.3 22 9.5 E 7 9 4 5 1022.3 1022.4 0.0
23/05:00pm 21.3 17.3 -1.9 21 10.0 NE 9 22 5 12 1022.2 1022.3 0.0
23/04:30pm 21.8 18.3 -1.5 21 10.2 NE 7 11 4 6 1022.1 1022.2 0.0
23/04:00pm 21.4 16.3 -1.8 21 10.0 ESE 15 19 8 10 1021.9 1021.9 0.0
23/03:30pm 21.9 18.5 -0.8 22 10.1 NE 7 17 4 9 1021.9 1021.9 0.0
23/03:00pm 21.4 16.8 -1.2 22 9.9 E 13 20 7 11 1022.1 1022.2 0.0
23/02:30pm 21.3 17.5 -0.6 23 9.7 WNW 9 19 5 10 1022.3 1022.4 0.0
23/02:00pm 21.4 16.5 -0.6 23 9.7 NE 15 24 8 13 1022.5 1022.6 0.0
23/01:30pm 20.7 15.6 0.5 26 9.1 E 17 32 9 17 1022.9 1023.0 0.0
23/01:00pm 20.7 16.4 1.1 27 8.9 ENE 13 22 7 12 1023.4 1023.5 0.0
23/12:30pm 19.7 14.2 0.7 28 8.5 NE 19 32 10 17 1024.1 1024.2 0.0
23/12:00pm 18.7 13.1 1.2 31 7.8 ENE 20 30 11 16 1024.8 1024.9 0.0
23/11:30am 18.5 12.7 2.4 34 7.4 NE 22 33 12 18 1025.3 1025.3 0.0
23/11:00am 17.6 11.7 2.0 35 7.0 ENE 22 30 12 16 1025.8 1025.8 0.0
23/10:30am 16.2 10.7 1.9 38 6.4 ENE 20 32 11 17 1026.2 1026.2 0.0
23/10:00am 15.3 10.1 2.5 42 5.7 ENE 19 24 10 13 1026.4 1026.4 0.0
23/09:30am 14.0 9.1 2.3 45 5.2 E 17 22 9 12 1026.4 1026.4 0.0
23/09:00am 11.8 7.9 1.2 48 4.5 SE 11 17 6 9 1026.4 1026.4 0.0
23/08:30am 9.5 5.4 0.1 52 3.8 SSE 11 15 6 8 1026.2 1026.2 0.0
23/08:00am 8.1 2.9 -0.1 56 3.2 SSE 17 20 9 11 1025.8 1025.8 0.0
23/07:30am 6.2 1.7 -0.5 62 2.6 S 13 15 7 8 1025.4 1025.4 0.0
23/07:00am 3.8 -0.1 -1.7 67 2.0 S 9 11 5 6 1024.9 1025.0 0.0
23/06:30am 3.0 -1.5 -3.1 64 2.1 S 11 13 6 7 1024.6 1024.7 0.0
23/06:00am 4.0 -0.4 -2.4 63 2.3 SSW 11 15 6 8 1024.0 1024.1 0.0
23/05:30am 4.4 0.1 -1.6 65 2.2 SSW 11 13 6 7 1023.6 1023.7 0.0
23/05:00am 4.4 -0.4 -2.2 62 2.4 SSW 13 15 7 8 1023.2 1023.3 0.0
23/04:30am 5.6 1.0 -1.1 62 2.5 SSW 13 15 7 8 1022.8 1022.9 0.0
23/04:00am 4.7 0.7 -2.4 60 2.5 SSW 9 11 5 6 1022.6 1022.7 0.0
23/03:30am 5.9 1.2 -1.7 58 2.8 SSW 13 15 7 8 1022.5 1022.6 0.0
23/03:00am 5.9 1.6 -1.7 58 2.8 SSW 11 13 6 7 1022.4 1022.5 0.0
23/02:30am 7.0 2.0 -1.2 56 3.1 S 15 19 8 10 1022.7 1022.8 0.0
23/02:00am 8.2 2.9 -0.3 55 3.3 S 17 20 9 11 1022.7 1022.8 0.0
23/01:30am 8.7 2.9 -0.3 53 3.6 S 20 22 11 12 1022.7 1022.8 0.0
23/01:00am 8.3 3.1 -0.2 55 3.3 SSW 17 20 9 11 1022.9 1023.0 0.0
23/12:30am 8.7 3.5 -0.1 54 3.5 S 17 19 9 10 1022.9 1023.0 0.0
23/12:00am 9.5 4.3 0.4 53 3.7 SSW 17 20 9 11 1022.7 1022.8 0.0
 
Date/Time
EST
Temp
°C
App
Temp
°C
Dew
Point
°C
Rel
Hum
%
Delta-T
°C
Wind Press
QNH
hPa
Press
MSL
hPa
Rain since
9am
mm
Dir  Spd
km/h
Gust
km/h
Spd
kts
Gust
kts
22/11:30pm 9.9 5.1 0.5 52 3.8 S 15 19 8 10 1022.7 1022.8 0.0
22/11:00pm 11.4 6.1 1.6 51 4.2 SSW 19 20 10 11 1022.7 1022.8 0.0
22/10:30pm 11.9 6.3 1.5 49 4.4 S 20 24 11 13 1022.7 1022.8 0.0
22/10:00pm 11.2 6.2 1.2 50 4.2 S 17 19 9 10 1022.9 1023.0 0.0
22/09:30pm 11.5 6.8 0.9 48 4.4 S 15 17 8 9 1022.8 1022.9 0.0
22/09:00pm 11.9 7.2 1.0 47 4.6 S 15 19 8 10 1022.6 1022.7 0.0
22/08:30pm 13.3 8.7 1.6 45 5.1 SSW 15 19 8 10 1022.3 1022.4 0.0
22/08:00pm 14.4 9.9 2.0 43 5.5 SSW 15 17 8 9 1021.9 1021.9 0.0
22/07:30pm 15.0 10.6 2.5 43 5.6 SSW 15 19 8 10 1021.4 1021.4 0.0
22/07:00pm 15.3 11.2 2.1 41 5.9 SW 13 17 7 9 1021.1 1021.1 0.0
22/06:30pm 16.4 11.6 2.8 40 6.2 SW 17 22 9 12 1020.8 1020.8 0.0
22/06:00pm 17.0 12.2 2.6 38 6.6 SW 17 24 9 13 1020.3 1020.3 0.0
22/05:30pm 18.0 11.6 3.1 37 6.9 SW 26 35 14 19 1020.0 1020.0 0.0
22/05:00pm 18.9 12.1 3.1 35 7.4 SW 28 35 15 19 1019.7 1019.7 0.0
22/04:30pm 19.4 12.2 3.2 34 7.6 SW 30 39 16 21 1019.5 1019.5 0.0
22/04:00pm 19.4 12.2 3.2 34 7.6 SW 30 43 16 23 1019.3 1019.3 0.0
22/03:30pm 19.9 12.4 3.6 34 7.8 SW 32 44 17 24 1019.3 1019.3 0.0
22/03:00pm 19.5 12.3 3.2 34 7.7 SW 30 39 16 21 1019.4 1019.4 0.0
22/02:30pm 20.2 12.8 3.9 34 7.8 SW 32 44 17 24 1019.5 1019.5 0.0
22/02:00pm 19.6 11.6 3.7 35 7.6 SW 35 46 19 25 1019.5 1019.5 0.0
22/01:30pm 19.7 13.0 3.8 35 7.6 SW 28 39 15 21 1019.8 1019.8 0.0
22/01:03pm 19.1 12.5 4.1 37 7.2 SW 28 46 15 25 1020.1 1020.1 0.0
22/01:00pm 18.8 12.2 4.2 38 7.0 SW 28 43 15 23 1020.2 1020.2 0.0
22/12:34pm 19.1 12.1 4.1 37 7.2 SW 30 48 16 26 1020.6 1020.6 0.0
22/12:30pm 19.3 12.4 4.6 38 7.1 SW 30 43 16 23 1020.7 1020.7 0.0
22/12:00pm 18.2 11.2 4.0 39 6.7 SW 30 41 16 22 1021.4 1021.4 0.0
22/11:35am 18.2 11.2 4.0 39 6.7 SSW 30 48 16 26 1021.9 1021.9 0.0
22/11:30am 18.3 11.6 3.8 38 6.9 SW 28 39 15 21 1022.0 1022.0 0.0
22/11:12am 17.6 10.1 3.5 39 6.6 SW 32 48 17 26 1022.2 1022.3 0.0
22/11:05am 17.8 10.3 3.7 39 6.6 SW 32 48 17 26 1022.3 1022.4 0.0
22/11:00am 17.6 10.1 3.5 39 6.6 SSW 32 41 17 22 1022.4 1022.5 0.0
22/10:30am 17.3 10.1 3.2 39 6.5 SW 30 41 16 22 1022.6 1022.7 0.0
22/10:00am 17.1 9.7 4.8 44 5.9 SSW 33 44 18 24 1022.5 1022.6 0.0
22/09:30am 16.0 9.6 5.3 49 5.1 SW 28 39 15 21 1022.6 1022.7 0.0
22/09:00am 14.8 8.9 5.9 55 4.3 SW 26 37 14 20 1022.6 1022.7 0.0
22/08:30am 13.6 8.0 5.3 57 3.9 SW 24 35 13 19 1022.6 1022.7 0.0
22/08:00am 12.6 7.8 4.6 58 3.7 WSW 19 26 10 14 1022.5 1022.6 0.0
22/07:30am 10.1 5.8 3.2 62 3.0 WSW 15 20 8 11 1022.4 1022.5 0.0
22/07:00am 8.8 4.0 2.4 64 2.7 WSW 17 20 9 11 1021.8 1021.8 0.0
22/06:30am 8.4 3.9 2.2 65 2.6 WSW 15 19 8 10 1021.5 1021.5 0.0
22/06:00am 8.2 3.6 1.8 64 2.6 WSW 15 19 8 10 1021.3 1021.3 0.0
22/05:30am 8.2 4.0 1.6 63 2.7 W 13 17 7 9 1020.8 1020.8 0.0
22/05:00am 8.9 4.4 2.0 62 2.9 W 15 19 8 10 1021.0 1021.0 0.0
22/04:30am 8.6 4.5 2.0 63 2.8 W 13 17 7 9 1021.1 1021.1 0.0
22/04:00am 8.5 4.0 1.9 63 2.7 WSW 15 19 8 10 1021.0 1021.0 0.0
22/03:30am 8.1 4.3 1.7 64 2.6 W 11 13 6 7 1021.1 1021.1 0.0
22/03:00am 8.1 4.3 1.7 64 2.6 W 11 13 6 7 1021.3 1021.3 0.0
22/02:30am 7.6 3.6 0.8 62 2.7 W 11 13 6 7 1021.7 1021.7 0.0
22/02:00am 7.9 4.0 1.3 63 2.7 W 11 13 6 7 1021.9 1021.9 0.0
22/01:30am 7.8 3.9 1.0 62 2.8 W 11 13 6 7 1022.1 1022.2 0.0
22/01:00am 8.4 4.1 1.3 61 2.9 WSW 13 15 7 8 1022.4 1022.5 0.0
22/12:30am 8.4 4.1 1.1 60 3.0 WSW 13 15 7 8 1022.6 1022.7 0.0
22/12:00am 8.4 4.4 0.6 58 3.1 WSW 11 13 6 7 1022.4 1022.5 0.0
 
Date/Time
EST
Temp
°C
App
Temp
°C
Dew
Point
°C
Rel
Hum
%
Delta-T
°C
Wind Press
QNH
hPa
Press
MSL
hPa
Rain since
9am
mm
Dir  Spd
km/h
Gust
km/h
Spd
kts
Gust
kts
21/11:30pm 7.9 4.1 -0.8 54 3.4 SW 9 11 5 6 1022.6 1022.7 0.0
21/11:00pm 9.3 5.3 0.5 54 3.6 W 11 11 6 6 1022.6 1022.7 0.0
21/10:30pm 10.3 6.4 0.9 52 3.9 SW 11 15 6 8 1022.7 1022.8 0.0
21/10:00pm 10.3 6.2 -0.5 47 4.3 SW 11 13 6 7 1022.9 1023.0 0.0
21/09:30pm 12.2 7.9 1.2 47 4.7 SW 13 17 7 9 1022.9 1023.0 0.0
21/09:00pm 9.4 5.5 -1.3 47 4.2 WSW 9 11 5 6 1022.6 1022.7 0.0
21/08:30pm 9.7 6.2 -1.3 46 4.3 W 7 9 4 5 1022.4 1022.5 0.0
21/08:00pm 10.4 6.7 -3.3 38 5.1 W 7 9 4 5 1022.3 1022.4 0.0
21/07:30pm 11.9 8.4 -1.3 40 5.3 W 7 7 4 4 1022.1 1022.2 0.0
21/07:00pm 14.5 11.4 0.0 37 6.1 WSW 6 7 3 4 1021.9 1021.9 0.0
21/06:30pm 15.9 11.8 0.1 34 6.8 SW 11 15 6 8 1022.0 1022.0 0.0
21/06:00pm 17.2 12.9 0.8 33 7.2 SW 13 15 7 8 1021.7 1021.7 0.0
21/05:30pm 18.8 13.8 1.3 31 7.9 WSW 17 22 9 12 1021.3 1021.3 0.0
21/05:00pm 19.8 14.9 1.7 30 8.3 SW 17 26 9 14 1021.4 1021.4 0.0
21/04:30pm 20.0 13.8 2.4 31 8.2 WSW 24 33 13 18 1021.5 1021.5 0.0
21/04:00pm 20.0 14.2 2.4 31 8.2 SW 22 37 12 20 1021.5 1021.5 0.0
21/03:30pm 20.3 14.2 2.6 31 8.3 SW 24 35 13 19 1021.7 1021.7 0.0
21/03:00pm 20.3 13.7 2.2 30 8.4 SW 26 37 14 20 1021.8 1021.8 0.0
21/02:38pm 20.6 13.8 3.3 32 8.3 SW 28 46 15 25 1021.8 1021.8 0.0
21/02:30pm 20.6 15.0 3.3 32 8.3 SW 22 35 12 19 1022.1 1022.2 0.0
21/02:00pm 19.8 14.5 3.1 33 7.9 SW 20 39 11 21 1022.3 1022.4 0.0
21/01:30pm 19.4 13.4 3.2 34 7.6 WSW 24 33 13 18 1022.6 1022.7 0.0
21/01:00pm 18.7 13.3 2.5 34 7.5 SW 20 35 11 19 1023.0 1023.1 0.0
21/12:30pm 18.2 12.1 2.9 36 7.1 WSW 24 32 13 17 1023.6 1023.7 0.0
21/12:00pm 17.9 12.7 3.4 38 6.8 SW 20 33 11 18 1024.2 1024.3 0.0
21/11:30am 17.5 11.1 3.0 38 6.7 SW 26 35 14 19 1024.8 1024.9 0.0
21/11:00am 17.1 10.9 4.4 43 6.0 SW 26 32 14 17 1025.3 1025.3 0.0

Other formats

Comma delimited format used in spreadsheet applications
http://www.bom.gov.au/fwo/IDN60801/IDN60801.95715.axf

JavaScript Object Notation format (JSON) in row-major order
http://www.bom.gov.au/fwo/IDN60801/IDN60801.95715.json

Data quality

Most of these data are generated automatically and are frequently updated. Quality checks on data are not normally performed. It is possible for incorrect values to appear. Refer to information at About Latest Weather Observations and please check the disclaimer before using these data.